sensor_id;sensor_type;location;lat;lon;timestamp;P1;durP1;ratioP1;P2;durP2;ratioP2
75062;SDS011;63981;51.052;13.754;2023-11-19T00:00:17;2.47;;;1.83;;
75062;SDS011;63981;51.052;13.754;2023-11-19T00:02:43;4.43;;;2.55;;
75062;SDS011;63981;51.052;13.754;2023-11-19T00:05:09;1.88;;;1.60;;
75062;SDS011;63981;51.052;13.754;2023-11-19T00:07:37;3.35;;;2.17;;
75062;SDS011;63981;51.052;13.754;2023-11-19T00:10:16;6.28;;;3.05;;
75062;SDS011;63981;51.052;13.754;2023-11-19T00:12:46;4.47;;;2.53;;
75062;SDS011;63981;51.052;13.754;2023-11-19T00:15:14;5.82;;;2.90;;
75062;SDS011;63981;51.052;13.754;2023-11-19T00:17:41;2.92;;;1.52;;
75062;SDS011;63981;51.052;13.754;2023-11-19T00:20:11;5.20;;;3.15;;
75062;SDS011;63981;51.052;13.754;2023-11-19T00:22:38;2.72;;;2.30;;
75062;SDS011;63981;51.052;13.754;2023-11-19T00:25:05;4.72;;;1.35;;
75062;SDS011;63981;51.052;13.754;2023-11-19T00:27:31;5.50;;;3.47;;
75062;SDS011;63981;51.052;13.754;2023-11-19T00:29:57;3.55;;;2.35;;
75062;SDS011;63981;51.052;13.754;2023-11-19T00:32:24;6.75;;;3.75;;
75062;SDS011;63981;51.052;13.754;2023-11-19T00:34:50;5.22;;;3.38;;
75062;SDS011;63981;51.052;13.754;2023-11-19T00:37:16;3.17;;;1.85;;
75062;SDS011;63981;51.052;13.754;2023-11-19T00:39:42;8.05;;;3.30;;
75062;SDS011;63981;51.052;13.754;2023-11-19T00:42:12;7.72;;;3.45;;
75062;SDS011;63981;51.052;13.754;2023-11-19T00:44:38;7.70;;;3.90;;
75062;SDS011;63981;51.052;13.754;2023-11-19T00:47:04;4.63;;;3.20;;
75062;SDS011;63981;51.052;13.754;2023-11-19T00:49:31;3.33;;;2.47;;
75062;SDS011;63981;51.052;13.754;2023-11-19T00:51:58;4.55;;;3.08;;
75062;SDS011;63981;51.052;13.754;2023-11-19T00:54:25;3.35;;;2.47;;
75062;SDS011;63981;51.052;13.754;2023-11-19T00:56:52;5.68;;;3.10;;
75062;SDS011;63981;51.052;13.754;2023-11-19T00:59:18;4.05;;;2.83;;
75062;SDS011;63981;51.052;13.754;2023-11-19T01:01:45;3.50;;;2.10;;
75062;SDS011;63981;51.052;13.754;2023-11-19T01:04:11;4.78;;;2.85;;
75062;SDS011;63981;51.052;13.754;2023-11-19T01:06:37;2.78;;;2.50;;
75062;SDS011;63981;51.052;13.754;2023-11-19T01:09:03;2.72;;;1.73;;
75062;SDS011;63981;51.052;13.754;2023-11-19T01:11:29;4.22;;;2.58;;
75062;SDS011;63981;51.052;13.754;2023-11-19T01:13:55;5.60;;;3.25;;
75062;SDS011;63981;51.052;13.754;2023-11-19T01:16:21;3.97;;;2.47;;
75062;SDS011;63981;51.052;13.754;2023-11-19T01:18:48;5.20;;;2.47;;
75062;SDS011;63981;51.052;13.754;2023-11-19T01:21:15;4.50;;;2.85;;
75062;SDS011;63981;51.052;13.754;2023-11-19T01:23:41;4.18;;;2.40;;
75062;SDS011;63981;51.052;13.754;2023-11-19T01:26:11;4.97;;;2.60;;
75062;SDS011;63981;51.052;13.754;2023-11-19T01:28:41;4.25;;;2.53;;
75062;SDS011;63981;51.052;13.754;2023-11-19T01:31:11;6.22;;;3.25;;
75062;SDS011;63981;51.052;13.754;2023-11-19T01:33:38;4.65;;;3.08;;
75062;SDS011;63981;51.052;13.754;2023-11-19T01:36:05;5.57;;;2.92;;
75062;SDS011;63981;51.052;13.754;2023-11-19T01:38:34;1.50;;;1.02;;
75062;SDS011;63981;51.052;13.754;2023-11-19T01:41:01;4.68;;;2.83;;
75062;SDS011;63981;51.052;13.754;2023-11-19T01:43:39;4.25;;;1.88;;
75062;SDS011;63981;51.052;13.754;2023-11-19T01:46:08;4.25;;;2.50;;
75062;SDS011;63981;51.052;13.754;2023-11-19T01:48:39;3.65;;;2.45;;
75062;SDS011;63981;51.052;13.754;2023-11-19T01:51:11;3.38;;;2.03;;
75062;SDS011;63981;51.052;13.754;2023-11-19T01:53:38;4.45;;;2.63;;
75062;SDS011;63981;51.052;13.754;2023-11-19T01:56:07;3.17;;;1.38;;
75062;SDS011;63981;51.052;13.754;2023-11-19T01:58:37;2.58;;;1.35;;
75062;SDS011;63981;51.052;13.754;2023-11-19T02:01:06;3.08;;;1.73;;
75062;SDS011;63981;51.052;13.754;2023-11-19T02:03:33;3.80;;;1.90;;
75062;SDS011;63981;51.052;13.754;2023-11-19T02:06:00;3.15;;;1.52;;
75062;SDS011;63981;51.052;13.754;2023-11-19T02:08:27;2.53;;;1.70;;
75062;SDS011;63981;51.052;13.754;2023-11-19T02:10:53;2.47;;;1.52;;
75062;SDS011;63981;51.052;13.754;2023-11-19T02:13:25;2.20;;;1.45;;
75062;SDS011;63981;51.052;13.754;2023-11-19T02:15:52;2.00;;;1.30;;
75062;SDS011;63981;51.052;13.754;2023-11-19T02:18:27;2.42;;;1.33;;
75062;SDS011;63981;51.052;13.754;2023-11-19T02:20:54;3.15;;;1.30;;
75062;SDS011;63981;51.052;13.754;2023-11-19T02:23:26;3.45;;;1.55;;
75062;SDS011;63981;51.052;13.754;2023-11-19T02:28:27;2.13;;;1.08;;
75062;SDS011;63981;51.052;13.754;2023-11-19T02:30:54;2.80;;;1.27;;
75062;SDS011;63981;51.052;13.754;2023-11-19T02:33:20;1.83;;;1.02;;
75062;SDS011;63981;51.052;13.754;2023-11-19T02:35:46;1.13;;;0.70;;
75062;SDS011;63981;51.052;13.754;2023-11-19T02:38:12;2.40;;;1.27;;
75062;SDS011;63981;51.052;13.754;2023-11-19T02:40:39;1.50;;;0.90;;
75062;SDS011;63981;51.052;13.754;2023-11-19T02:43:05;0.98;;;0.82;;
75062;SDS011;63981;51.052;13.754;2023-11-19T02:45:32;3.03;;;1.40;;
75062;SDS011;63981;51.052;13.754;2023-11-19T02:47:59;1.00;;;0.68;;
75062;SDS011;63981;51.052;13.754;2023-11-19T02:50:28;0.50;;;0.35;;
75062;SDS011;63981;51.052;13.754;2023-11-19T02:52:55;2.35;;;1.15;;
75062;SDS011;63981;51.052;13.754;2023-11-19T02:55:22;2.13;;;1.67;;
75062;SDS011;63981;51.052;13.754;2023-11-19T02:57:49;1.50;;;0.60;;
75062;SDS011;63981;51.052;13.754;2023-11-19T03:00:17;1.48;;;0.90;;
75062;SDS011;63981;51.052;13.754;2023-11-19T03:03:12;1.35;;;0.70;;
75062;SDS011;63981;51.052;13.754;2023-11-19T03:05:46;2.33;;;0.93;;
75062;SDS011;63981;51.052;13.754;2023-11-19T03:08:12;1.23;;;0.68;;
75062;SDS011;63981;51.052;13.754;2023-11-19T03:10:39;2.10;;;1.00;;
75062;SDS011;63981;51.052;13.754;2023-11-19T03:13:05;0.32;;;0.22;;
75062;SDS011;63981;51.052;13.754;2023-11-19T03:15:31;0.50;;;0.40;;
75062;SDS011;63981;51.052;13.754;2023-11-19T03:17:57;0.88;;;0.65;;
75062;SDS011;63981;51.052;13.754;2023-11-19T03:20:23;1.58;;;1.08;;
75062;SDS011;63981;51.052;13.754;2023-11-19T03:22:53;1.33;;;0.73;;
75062;SDS011;63981;51.052;13.754;2023-11-19T03:25:19;0.93;;;0.60;;
75062;SDS011;63981;51.052;13.754;2023-11-19T03:27:47;0.55;;;0.55;;
75062;SDS011;63981;51.052;13.754;2023-11-19T03:30:13;2.20;;;0.73;;
75062;SDS011;63981;51.052;13.754;2023-11-19T03:32:39;1.50;;;0.68;;
75062;SDS011;63981;51.052;13.754;2023-11-19T03:35:05;2.05;;;1.05;;
75062;SDS011;63981;51.052;13.754;2023-11-19T03:37:35;0.77;;;0.43;;
75062;SDS011;63981;51.052;13.754;2023-11-19T03:40:02;1.15;;;0.63;;
75062;SDS011;63981;51.052;13.754;2023-11-19T03:42:28;1.20;;;0.40;;
75062;SDS011;63981;51.052;13.754;2023-11-19T03:44:58;0.57;;;0.40;;
75062;SDS011;63981;51.052;13.754;2023-11-19T03:47:24;0.90;;;0.70;;
75062;SDS011;63981;51.052;13.754;2023-11-19T03:49:51;1.13;;;0.68;;
75062;SDS011;63981;51.052;13.754;2023-11-19T03:52:18;2.65;;;0.95;;
75062;SDS011;63981;51.052;13.754;2023-11-19T03:54:44;1.80;;;1.35;;
75062;SDS011;63981;51.052;13.754;2023-11-19T03:57:12;1.30;;;1.10;;
75062;SDS011;63981;51.052;13.754;2023-11-19T03:59:38;2.00;;;0.93;;
75062;SDS011;63981;51.052;13.754;2023-11-19T04:02:05;1.73;;;1.08;;
75062;SDS011;63981;51.052;13.754;2023-11-19T04:04:32;0.90;;;0.63;;
75062;SDS011;63981;51.052;13.754;2023-11-19T04:07:00;1.10;;;0.50;;
75062;SDS011;63981;51.052;13.754;2023-11-19T04:09:26;2.05;;;1.30;;
75062;SDS011;63981;51.052;13.754;2023-11-19T04:11:52;1.70;;;0.88;;
75062;SDS011;63981;51.052;13.754;2023-11-19T04:14:18;1.73;;;0.80;;
75062;SDS011;63981;51.052;13.754;2023-11-19T04:16:44;2.20;;;0.63;;
75062;SDS011;63981;51.052;13.754;2023-11-19T04:19:11;3.03;;;1.30;;
75062;SDS011;63981;51.052;13.754;2023-11-19T04:21:39;1.30;;;0.55;;
75062;SDS011;63981;51.052;13.754;2023-11-19T04:24:07;1.73;;;1.27;;
75062;SDS011;63981;51.052;13.754;2023-11-19T04:26:34;0.98;;;0.82;;
75062;SDS011;63981;51.052;13.754;2023-11-19T04:29:00;1.05;;;0.95;;
75062;SDS011;63981;51.052;13.754;2023-11-19T04:31:29;1.85;;;1.35;;
75062;SDS011;63981;51.052;13.754;2023-11-19T04:33:58;1.92;;;1.17;;
75062;SDS011;63981;51.052;13.754;2023-11-19T04:36:26;3.58;;;1.50;;
75062;SDS011;63981;51.052;13.754;2023-11-19T04:38:52;1.08;;;0.98;;
75062;SDS011;63981;51.052;13.754;2023-11-19T04:41:18;3.78;;;1.20;;
75062;SDS011;63981;51.052;13.754;2023-11-19T04:43:44;2.85;;;0.82;;
75062;SDS011;63981;51.052;13.754;2023-11-19T04:46:10;1.15;;;0.60;;
75062;SDS011;63981;51.052;13.754;2023-11-19T04:48:36;2.15;;;1.50;;
75062;SDS011;63981;51.052;13.754;2023-11-19T04:51:06;1.65;;;1.17;;
75062;SDS011;63981;51.052;13.754;2023-11-19T04:53:34;2.17;;;1.50;;
75062;SDS011;63981;51.052;13.754;2023-11-19T04:56:01;2.95;;;1.10;;
75062;SDS011;63981;51.052;13.754;2023-11-19T04:58:32;1.45;;;0.90;;
75062;SDS011;63981;51.052;13.754;2023-11-19T05:00:59;0.77;;;0.30;;
75062;SDS011;63981;51.052;13.754;2023-11-19T05:03:25;3.17;;;0.80;;
75062;SDS011;63981;51.052;13.754;2023-11-19T05:05:52;2.58;;;1.95;;
75062;SDS011;63981;51.052;13.754;2023-11-19T05:08:19;1.42;;;0.47;;
75062;SDS011;63981;51.052;13.754;2023-11-19T05:10:45;0.60;;;0.60;;
75062;SDS011;63981;51.052;13.754;2023-11-19T05:13:11;1.75;;;1.00;;
75062;SDS011;63981;51.052;13.754;2023-11-19T05:15:38;0.73;;;0.65;;
75062;SDS011;63981;51.052;13.754;2023-11-19T05:18:04;1.52;;;1.10;;
75062;SDS011;63981;51.052;13.754;2023-11-19T05:20:30;1.98;;;1.00;;
75062;SDS011;63981;51.052;13.754;2023-11-19T05:22:56;1.48;;;1.00;;
75062;SDS011;63981;51.052;13.754;2023-11-19T05:25:22;1.00;;;0.70;;
75062;SDS011;63981;51.052;13.754;2023-11-19T05:27:48;0.50;;;0.32;;
75062;SDS011;63981;51.052;13.754;2023-11-19T05:30:14;0.47;;;0.38;;
75062;SDS011;63981;51.052;13.754;2023-11-19T05:32:41;1.20;;;0.73;;
75062;SDS011;63981;51.052;13.754;2023-11-19T05:35:07;0.93;;;0.68;;
75062;SDS011;63981;51.052;13.754;2023-11-19T05:37:34;0.28;;;0.28;;
75062;SDS011;63981;51.052;13.754;2023-11-19T05:40:01;0.90;;;0.68;;
75062;SDS011;63981;51.052;13.754;2023-11-19T05:42:29;1.70;;;0.85;;
75062;SDS011;63981;51.052;13.754;2023-11-19T05:44:55;0.10;;;0.10;;
75062;SDS011;63981;51.052;13.754;2023-11-19T05:47:21;2.53;;;0.93;;
75062;SDS011;63981;51.052;13.754;2023-11-19T05:49:47;0.40;;;0.40;;
75062;SDS011;63981;51.052;13.754;2023-11-19T05:52:14;0.90;;;0.90;;
75062;SDS011;63981;51.052;13.754;2023-11-19T05:54:40;1.25;;;1.20;;
75062;SDS011;63981;51.052;13.754;2023-11-19T05:57:07;0.43;;;0.43;;
75062;SDS011;63981;51.052;13.754;2023-11-19T05:59:35;0.90;;;0.75;;
75062;SDS011;63981;51.052;13.754;2023-11-19T06:02:04;0.73;;;0.57;;
75062;SDS011;63981;51.052;13.754;2023-11-19T06:04:30;0.98;;;0.88;;
75062;SDS011;63981;51.052;13.754;2023-11-19T06:06:57;3.70;;;0.55;;
75062;SDS011;63981;51.052;13.754;2023-11-19T06:09:23;1.13;;;0.65;;
75062;SDS011;63981;51.052;13.754;2023-11-19T06:11:52;0.85;;;0.73;;
75062;SDS011;63981;51.052;13.754;2023-11-19T06:14:18;1.90;;;1.10;;
75062;SDS011;63981;51.052;13.754;2023-11-19T06:16:44;2.78;;;1.33;;
75062;SDS011;63981;51.052;13.754;2023-11-19T06:19:10;1.00;;;0.75;;
75062;SDS011;63981;51.052;13.754;2023-11-19T06:21:37;1.95;;;0.75;;
75062;SDS011;63981;51.052;13.754;2023-11-19T06:24:03;0.57;;;0.55;;
75062;SDS011;63981;51.052;13.754;2023-11-19T06:26:30;1.60;;;0.65;;
75062;SDS011;63981;51.052;13.754;2023-11-19T06:28:56;0.60;;;0.43;;
75062;SDS011;63981;51.052;13.754;2023-11-19T06:31:22;1.63;;;0.80;;
75062;SDS011;63981;51.052;13.754;2023-11-19T06:33:48;1.27;;;1.17;;
75062;SDS011;63981;51.052;13.754;2023-11-19T06:36:14;0.75;;;0.55;;
75062;SDS011;63981;51.052;13.754;2023-11-19T06:38:42;0.20;;;0.20;;
75062;SDS011;63981;51.052;13.754;2023-11-19T06:41:09;0.63;;;0.63;;
75062;SDS011;63981;51.052;13.754;2023-11-19T06:43:36;0.28;;;0.28;;
75062;SDS011;63981;51.052;13.754;2023-11-19T06:46:02;0.82;;;0.73;;
75062;SDS011;63981;51.052;13.754;2023-11-19T06:48:34;0.32;;;0.32;;
75062;SDS011;63981;51.052;13.754;2023-11-19T06:51:00;1.60;;;0.98;;
75062;SDS011;63981;51.052;13.754;2023-11-19T06:53:26;0.17;;;0.17;;
75062;SDS011;63981;51.052;13.754;2023-11-19T06:55:53;0.70;;;0.63;;
75062;SDS011;63981;51.052;13.754;2023-11-19T06:58:20;1.98;;;0.30;;
75062;SDS011;63981;51.052;13.754;2023-11-19T07:00:46;0.40;;;0.40;;
75062;SDS011;63981;51.052;13.754;2023-11-19T07:03:13;0.93;;;0.30;;
75062;SDS011;63981;51.052;13.754;2023-11-19T07:05:40;2.35;;;0.55;;
75062;SDS011;63981;51.052;13.754;2023-11-19T07:08:06;0.10;;;0.10;;
75062;SDS011;63981;51.052;13.754;2023-11-19T07:10:35;0.40;;;0.35;;
75062;SDS011;63981;51.052;13.754;2023-11-19T07:13:01;0.47;;;0.30;;
75062;SDS011;63981;51.052;13.754;2023-11-19T07:15:31;1.00;;;0.73;;
75062;SDS011;63981;51.052;13.754;2023-11-19T07:17:58;0.45;;;0.38;;
75062;SDS011;63981;51.052;13.754;2023-11-19T07:20:25;0.17;;;0.13;;
75062;SDS011;63981;51.052;13.754;2023-11-19T07:22:52;0.70;;;0.43;;
75062;SDS011;63981;51.052;13.754;2023-11-19T07:25:18;1.65;;;0.38;;
75062;SDS011;63981;51.052;13.754;2023-11-19T07:27:44;1.00;;;1.00;;
75062;SDS011;63981;51.052;13.754;2023-11-19T07:30:10;1.42;;;0.55;;
75062;SDS011;63981;51.052;13.754;2023-11-19T07:32:37;0.57;;;0.57;;
75062;SDS011;63981;51.052;13.754;2023-11-19T07:35:04;0.00;;;0.00;;
75062;SDS011;63981;51.052;13.754;2023-11-19T07:37:31;0.70;;;0.60;;
75062;SDS011;63981;51.052;13.754;2023-11-19T07:39:57;0.52;;;0.30;;
75062;SDS011;63981;51.052;13.754;2023-11-19T07:42:23;1.15;;;0.47;;
75062;SDS011;63981;51.052;13.754;2023-11-19T07:44:49;0.22;;;0.22;;
75062;SDS011;63981;51.052;13.754;2023-11-19T07:47:16;0.93;;;0.65;;
75062;SDS011;63981;51.052;13.754;2023-11-19T07:49:42;0.55;;;0.43;;
75062;SDS011;63981;51.052;13.754;2023-11-19T07:52:09;0.28;;;0.28;;
75062;SDS011;63981;51.052;13.754;2023-11-19T07:54:35;0.40;;;0.20;;
75062;SDS011;63981;51.052;13.754;2023-11-19T07:57:01;0.43;;;0.40;;
75062;SDS011;63981;51.052;13.754;2023-11-19T07:59:27;0.80;;;0.60;;
75062;SDS011;63981;51.052;13.754;2023-11-19T08:01:54;1.60;;;0.40;;
75062;SDS011;63981;51.052;13.754;2023-11-19T08:04:20;0.43;;;0.43;;
75062;SDS011;63981;51.052;13.754;2023-11-19T08:06:46;0.20;;;0.10;;
75062;SDS011;63981;51.052;13.754;2023-11-19T08:09:12;0.40;;;0.40;;
75062;SDS011;63981;51.052;13.754;2023-11-19T08:11:42;0.50;;;0.50;;
75062;SDS011;63981;51.052;13.754;2023-11-19T08:14:08;0.30;;;0.30;;
75062;SDS011;63981;51.052;13.754;2023-11-19T08:16:34;0.10;;;0.10;;
75062;SDS011;63981;51.052;13.754;2023-11-19T08:19:00;0.10;;;0.10;;
75062;SDS011;63981;51.052;13.754;2023-11-19T08:21:26;0.32;;;0.20;;
75062;SDS011;63981;51.052;13.754;2023-11-19T08:23:52;0.98;;;0.28;;
75062;SDS011;63981;51.052;13.754;2023-11-19T08:26:19;0.93;;;0.60;;
75062;SDS011;63981;51.052;13.754;2023-11-19T08:28:45;0.45;;;0.45;;
75062;SDS011;63981;51.052;13.754;2023-11-19T08:31:11;1.38;;;0.52;;
75062;SDS011;63981;51.052;13.754;2023-11-19T08:33:37;0.40;;;0.40;;
75062;SDS011;63981;51.052;13.754;2023-11-19T08:36:03;1.90;;;1.00;;
75062;SDS011;63981;51.052;13.754;2023-11-19T08:38:30;0.82;;;0.68;;
75062;SDS011;63981;51.052;13.754;2023-11-19T08:40:56;0.75;;;0.43;;
75062;SDS011;63981;51.052;13.754;2023-11-19T08:43:26;0.28;;;0.22;;
75062;SDS011;63981;51.052;13.754;2023-11-19T08:45:53;0.85;;;0.45;;
75062;SDS011;63981;51.052;13.754;2023-11-19T08:48:19;1.48;;;0.65;;
75062;SDS011;63981;51.052;13.754;2023-11-19T08:50:45;0.45;;;0.35;;
75062;SDS011;63981;51.052;13.754;2023-11-19T08:53:11;1.55;;;0.85;;
75062;SDS011;63981;51.052;13.754;2023-11-19T08:55:37;0.82;;;0.70;;
75062;SDS011;63981;51.052;13.754;2023-11-19T08:58:03;1.05;;;0.95;;
75062;SDS011;63981;51.052;13.754;2023-11-19T09:00:29;0.40;;;0.20;;
75062;SDS011;63981;51.052;13.754;2023-11-19T09:02:58;1.33;;;0.70;;
75062;SDS011;63981;51.052;13.754;2023-11-19T09:05:25;1.27;;;0.80;;
75062;SDS011;63981;51.052;13.754;2023-11-19T09:07:51;0.70;;;0.70;;
75062;SDS011;63981;51.052;13.754;2023-11-19T09:10:17;0.95;;;0.70;;
75062;SDS011;63981;51.052;13.754;2023-11-19T09:12:43;0.95;;;0.70;;
75062;SDS011;63981;51.052;13.754;2023-11-19T09:15:09;0.85;;;0.60;;
75062;SDS011;63981;51.052;13.754;2023-11-19T09:17:36;1.42;;;0.95;;
75062;SDS011;63981;51.052;13.754;2023-11-19T09:20:02;1.08;;;0.65;;
75062;SDS011;63981;51.052;13.754;2023-11-19T09:22:28;0.65;;;0.55;;
75062;SDS011;63981;51.052;13.754;2023-11-19T09:24:54;0.57;;;0.52;;
75062;SDS011;63981;51.052;13.754;2023-11-19T09:27:20;1.85;;;1.02;;
75062;SDS011;63981;51.052;13.754;2023-11-19T09:29:46;0.60;;;0.50;;
75062;SDS011;63981;51.052;13.754;2023-11-19T09:32:14;1.05;;;0.70;;
75062;SDS011;63981;51.052;13.754;2023-11-19T09:34:40;4.88;;;0.88;;
75062;SDS011;63981;51.052;13.754;2023-11-19T09:37:06;1.45;;;1.13;;
75062;SDS011;63981;51.052;13.754;2023-11-19T09:39:33;0.88;;;0.15;;
75062;SDS011;63981;51.052;13.754;2023-11-19T09:41:59;0.38;;;0.25;;
75062;SDS011;63981;51.052;13.754;2023-11-19T09:44:25;0.10;;;0.10;;
75062;SDS011;63981;51.052;13.754;2023-11-19T09:46:52;0.95;;;0.35;;
75062;SDS011;63981;51.052;13.754;2023-11-19T09:49:20;0.30;;;0.20;;
75062;SDS011;63981;51.052;13.754;2023-11-19T09:51:48;0.43;;;0.15;;
75062;SDS011;63981;51.052;13.754;2023-11-19T09:54:14;2.83;;;0.35;;
75062;SDS011;63981;51.052;13.754;2023-11-19T09:56:40;0.08;;;0.08;;
75062;SDS011;63981;51.052;13.754;2023-11-19T09:59:07;0.25;;;0.25;;
75062;SDS011;63981;51.052;13.754;2023-11-19T10:04:02;2.58;;;0.98;;
75062;SDS011;63981;51.052;13.754;2023-11-19T10:06:29;0.05;;;0.05;;
75062;SDS011;63981;51.052;13.754;2023-11-19T10:08:55;0.20;;;0.20;;
75062;SDS011;63981;51.052;13.754;2023-11-19T10:11:21;0.57;;;0.45;;
75062;SDS011;63981;51.052;13.754;2023-11-19T10:13:47;0.80;;;0.40;;
75062;SDS011;63981;51.052;13.754;2023-11-19T10:16:14;0.43;;;0.32;;
75062;SDS011;63981;51.052;13.754;2023-11-19T10:18:47;1.08;;;0.40;;
75062;SDS011;63981;51.052;13.754;2023-11-19T10:21:19;0.28;;;0.17;;
75062;SDS011;63981;51.052;13.754;2023-11-19T10:26:19;0.28;;;0.20;;
75062;SDS011;63981;51.052;13.754;2023-11-19T10:28:46;0.10;;;0.10;;
75062;SDS011;63981;51.052;13.754;2023-11-19T10:31:17;1.45;;;0.32;;
75062;SDS011;63981;51.052;13.754;2023-11-19T10:33:47;1.02;;;0.75;;
75062;SDS011;63981;51.052;13.754;2023-11-19T10:36:13;0.52;;;0.30;;
75062;SDS011;63981;51.052;13.754;2023-11-19T10:38:39;1.50;;;0.52;;
75062;SDS011;63981;51.052;13.754;2023-11-19T10:41:06;0.43;;;0.13;;
75062;SDS011;63981;51.052;13.754;2023-11-19T10:43:43;0.10;;;0.10;;
75062;SDS011;63981;51.052;13.754;2023-11-19T10:46:13;0.22;;;0.10;;
75062;SDS011;63981;51.052;13.754;2023-11-19T10:48:40;2.75;;;0.38;;
75062;SDS011;63981;51.052;13.754;2023-11-19T10:51:06;2.13;;;0.25;;
75062;SDS011;63981;51.052;13.754;2023-11-19T10:53:34;0.00;;;0.00;;
75062;SDS011;63981;51.052;13.754;2023-11-19T10:56:03;0.40;;;0.13;;
75062;SDS011;63981;51.052;13.754;2023-11-19T10:58:34;0.28;;;0.17;;
75062;SDS011;63981;51.052;13.754;2023-11-19T11:01:03;1.60;;;0.35;;
75062;SDS011;63981;51.052;13.754;2023-11-19T11:03:40;2.05;;;0.20;;
75062;SDS011;63981;51.052;13.754;2023-11-19T11:06:06;0.60;;;0.28;;
75062;SDS011;63981;51.052;13.754;2023-11-19T11:08:36;0.40;;;0.10;;
75062;SDS011;63981;51.052;13.754;2023-11-19T11:11:04;0.35;;;0.30;;
75062;SDS011;63981;51.052;13.754;2023-11-19T11:13:33;1.73;;;0.20;;
75062;SDS011;63981;51.052;13.754;2023-11-19T11:16:00;0.98;;;0.30;;
75062;SDS011;63981;51.052;13.754;2023-11-19T11:18:26;1.38;;;0.28;;
75062;SDS011;63981;51.052;13.754;2023-11-19T11:21:03;0.63;;;0.30;;
75062;SDS011;63981;51.052;13.754;2023-11-19T11:23:39;0.93;;;0.35;;
75062;SDS011;63981;51.052;13.754;2023-11-19T11:26:38;0.20;;;0.20;;
75062;SDS011;63981;51.052;13.754;2023-11-19T11:29:14;1.20;;;0.35;;
75062;SDS011;63981;51.052;13.754;2023-11-19T11:37:42;0.57;;;0.20;;
75062;SDS011;63981;51.052;13.754;2023-11-19T11:40:15;1.42;;;0.38;;
75062;SDS011;63981;51.052;13.754;2023-11-19T11:42:47;2.92;;;0.28;;
75062;SDS011;63981;51.052;13.754;2023-11-19T11:45:14;3.95;;;0.70;;
75062;SDS011;63981;51.052;13.754;2023-11-19T11:50:08;1.58;;;0.30;;
75062;SDS011;63981;51.052;13.754;2023-11-19T11:55:23;0.63;;;0.30;;
75062;SDS011;63981;51.052;13.754;2023-11-19T11:57:50;0.57;;;0.30;;
75062;SDS011;63981;51.052;13.754;2023-11-19T12:00:23;1.73;;;0.60;;
75062;SDS011;63981;51.052;13.754;2023-11-19T12:03:04;1.80;;;0.30;;
75062;SDS011;63981;51.052;13.754;2023-11-19T12:05:31;1.67;;;0.30;;
75062;SDS011;63981;51.052;13.754;2023-11-19T12:08:00;1.10;;;0.40;;
75062;SDS011;63981;51.052;13.754;2023-11-19T12:10:31;1.65;;;0.45;;
75062;SDS011;63981;51.052;13.754;2023-11-19T12:12:58;1.67;;;0.45;;
75062;SDS011;63981;51.052;13.754;2023-11-19T12:15:25;2.92;;;0.75;;
75062;SDS011;63981;51.052;13.754;2023-11-19T12:17:53;2.33;;;0.60;;
75062;SDS011;63981;51.052;13.754;2023-11-19T12:20:21;3.60;;;0.40;;
75062;SDS011;63981;51.052;13.754;2023-11-19T12:22:49;4.55;;;1.02;;
75062;SDS011;63981;51.052;13.754;2023-11-19T12:25:16;3.10;;;0.80;;
75062;SDS011;63981;51.052;13.754;2023-11-19T12:27:44;3.13;;;0.55;;
75062;SDS011;63981;51.052;13.754;2023-11-19T12:30:12;1.02;;;0.30;;
75062;SDS011;63981;51.052;13.754;2023-11-19T12:32:43;4.47;;;0.70;;
75062;SDS011;63981;51.052;13.754;2023-11-19T12:35:12;2.88;;;0.63;;
75062;SDS011;63981;51.052;13.754;2023-11-19T12:37:39;3.92;;;0.75;;
75062;SDS011;63981;51.052;13.754;2023-11-19T12:40:13;1.60;;;0.30;;
75062;SDS011;63981;51.052;13.754;2023-11-19T12:42:42;7.47;;;0.75;;
75062;SDS011;63981;51.052;13.754;2023-11-19T12:45:35;3.55;;;0.80;;
75062;SDS011;63981;51.052;13.754;2023-11-19T12:48:05;4.93;;;0.82;;
75062;SDS011;63981;51.052;13.754;2023-11-19T12:55:44;2.47;;;1.20;;
75062;SDS011;63981;51.052;13.754;2023-11-19T12:58:28;4.80;;;0.88;;
75062;SDS011;63981;51.052;13.754;2023-11-19T13:01:04;5.80;;;1.77;;
75062;SDS011;63981;51.052;13.754;2023-11-19T13:03:36;3.08;;;0.38;;
75062;SDS011;63981;51.052;13.754;2023-11-19T13:06:07;6.18;;;1.88;;
75062;SDS011;63981;51.052;13.754;2023-11-19T13:08:40;3.15;;;0.80;;
75062;SDS011;63981;51.052;13.754;2023-11-19T13:11:07;2.38;;;0.50;;
75062;SDS011;63981;51.052;13.754;2023-11-19T13:16:25;1.88;;;0.70;;
75062;SDS011;63981;51.052;13.754;2023-11-19T13:18:52;6.95;;;1.02;;
75062;SDS011;63981;51.052;13.754;2023-11-19T13:21:19;2.78;;;0.68;;
75062;SDS011;63981;51.052;13.754;2023-11-19T13:23:45;4.07;;;1.80;;
75062;SDS011;63981;51.052;13.754;2023-11-19T13:26:11;3.75;;;1.05;;
75062;SDS011;63981;51.052;13.754;2023-11-19T13:28:37;4.25;;;0.85;;
75062;SDS011;63981;51.052;13.754;2023-11-19T13:31:04;2.22;;;0.68;;
75062;SDS011;63981;51.052;13.754;2023-11-19T13:33:30;5.10;;;0.77;;
75062;SDS011;63981;51.052;13.754;2023-11-19T13:35:56;3.08;;;1.05;;
75062;SDS011;63981;51.052;13.754;2023-11-19T13:38:22;5.32;;;1.25;;
75062;SDS011;63981;51.052;13.754;2023-11-19T13:40:50;3.20;;;0.60;;
75062;SDS011;63981;51.052;13.754;2023-11-19T13:43:17;4.22;;;1.00;;
75062;SDS011;63981;51.052;13.754;2023-11-19T13:45:43;2.75;;;1.23;;
75062;SDS011;63981;51.052;13.754;2023-11-19T13:48:09;7.22;;;1.35;;
75062;SDS011;63981;51.052;13.754;2023-11-19T13:50:35;8.52;;;1.38;;
75062;SDS011;63981;51.052;13.754;2023-11-19T13:53:01;6.00;;;0.93;;
75062;SDS011;63981;51.052;13.754;2023-11-19T13:55:27;3.88;;;0.93;;
75062;SDS011;63981;51.052;13.754;2023-11-19T13:57:53;7.40;;;1.40;;
75062;SDS011;63981;51.052;13.754;2023-11-19T14:00:19;5.25;;;1.10;;
75062;SDS011;63981;51.052;13.754;2023-11-19T14:02:47;4.65;;;0.95;;
75062;SDS011;63981;51.052;13.754;2023-11-19T14:05:14;1.98;;;0.90;;
75062;SDS011;63981;51.052;13.754;2023-11-19T14:07:43;5.75;;;0.85;;
75062;SDS011;63981;51.052;13.754;2023-11-19T14:10:09;5.60;;;1.02;;
75062;SDS011;63981;51.052;13.754;2023-11-19T14:12:37;7.88;;;0.95;;
75062;SDS011;63981;51.052;13.754;2023-11-19T14:15:04;3.20;;;0.70;;
75062;SDS011;63981;51.052;13.754;2023-11-19T14:17:38;6.25;;;1.00;;
75062;SDS011;63981;51.052;13.754;2023-11-19T14:20:05;4.45;;;0.80;;
75062;SDS011;63981;51.052;13.754;2023-11-19T14:22:42;2.85;;;0.90;;
75062;SDS011;63981;51.052;13.754;2023-11-19T14:25:09;3.08;;;1.00;;
75062;SDS011;63981;51.052;13.754;2023-11-19T14:27:37;2.60;;;0.40;;
75062;SDS011;63981;51.052;13.754;2023-11-19T14:30:08;6.40;;;0.90;;
75062;SDS011;63981;51.052;13.754;2023-11-19T14:32:37;8.80;;;1.38;;
75062;SDS011;63981;51.052;13.754;2023-11-19T14:35:04;3.08;;;0.90;;
75062;SDS011;63981;51.052;13.754;2023-11-19T14:37:31;4.65;;;1.08;;
75062;SDS011;63981;51.052;13.754;2023-11-19T14:39:58;1.60;;;0.70;;
75062;SDS011;63981;51.052;13.754;2023-11-19T14:42:24;5.97;;;0.93;;
75062;SDS011;63981;51.052;13.754;2023-11-19T14:44:51;3.75;;;0.82;;
75062;SDS011;63981;51.052;13.754;2023-11-19T14:47:24;6.03;;;0.80;;
75062;SDS011;63981;51.052;13.754;2023-11-19T14:49:50;6.38;;;1.13;;
75062;SDS011;63981;51.052;13.754;2023-11-19T14:52:17;4.45;;;1.00;;
75062;SDS011;63981;51.052;13.754;2023-11-19T14:54:43;4.95;;;0.88;;
75062;SDS011;63981;51.052;13.754;2023-11-19T14:57:09;6.32;;;1.15;;
75062;SDS011;63981;51.052;13.754;2023-11-19T14:59:36;3.30;;;0.93;;
75062;SDS011;63981;51.052;13.754;2023-11-19T15:02:03;1.95;;;1.10;;